createdAt,value
2023-05-10T00:01:42.816Z,1.87
2023-05-10T00:04:09.949Z,1.80
2023-05-10T00:06:36.880Z,1.70
2023-05-10T00:09:04.551Z,1.65
2023-05-10T00:11:31.564Z,2.15
2023-05-10T00:13:58.410Z,1.75
2023-05-10T00:16:25.463Z,1.60
2023-05-10T00:18:52.305Z,1.70
2023-05-10T00:21:19.183Z,2.08
2023-05-10T00:23:46.059Z,1.70
2023-05-10T00:26:13.004Z,1.98
2023-05-10T00:28:39.995Z,1.90
2023-05-10T00:31:06.917Z,1.87
2023-05-10T00:33:33.897Z,1.90
2023-05-10T00:36:01.177Z,2.00
2023-05-10T00:38:28.094Z,1.83
2023-05-10T00:40:55.035Z,2.00
2023-05-10T00:43:21.939Z,2.15
2023-05-10T00:45:49.518Z,1.90
2023-05-10T00:48:16.429Z,1.95
2023-05-10T00:50:43.358Z,1.58
2023-05-10T00:53:10.674Z,1.80
2023-05-10T00:55:38.372Z,2.10
2023-05-10T00:58:06.089Z,2.00
2023-05-10T01:00:34.439Z,1.80
2023-05-10T01:03:02.389Z,2.10
2023-05-10T01:05:29.472Z,2.13
2023-05-10T01:07:57.234Z,1.98
2023-05-10T01:10:24.185Z,2.00
2023-05-10T01:12:52.002Z,1.77
2023-05-10T01:15:19.861Z,2.00
2023-05-10T01:17:48.536Z,1.80
2023-05-10T01:20:16.336Z,1.73
2023-05-10T01:22:51.081Z,1.90
2023-05-10T01:25:32.938Z,1.85
2023-05-10T01:28:28.041Z,2.00
2023-05-10T01:31:16.742Z,1.90
2023-05-10T01:33:56.154Z,1.80
2023-05-10T01:36:33.885Z,1.58
2023-05-10T01:39:33.336Z,1.60
2023-05-10T01:42:11.465Z,2.00
2023-05-10T01:44:50.256Z,1.83
2023-05-10T01:47:25.437Z,1.92
2023-05-10T01:50:01.928Z,1.80
2023-05-10T01:52:34.584Z,1.90
2023-05-10T01:55:04.087Z,1.40
2023-05-10T01:57:36.358Z,1.73
2023-05-10T02:00:08.812Z,1.85
2023-05-10T02:02:43.114Z,1.98
2023-05-10T02:05:13.127Z,1.80
2023-05-10T02:07:40.953Z,1.67
2023-05-10T02:10:10.404Z,1.90
2023-05-10T02:12:40.559Z,1.55
2023-05-10T02:15:08.948Z,1.80
2023-05-10T02:17:38.280Z,1.62
2023-05-10T02:20:07.513Z,1.75
2023-05-10T02:22:36.131Z,1.90
2023-05-10T02:25:04.392Z,1.90
2023-05-10T02:27:31.880Z,1.50
2023-05-10T02:29:59.579Z,1.90
2023-05-10T02:32:28.017Z,1.92
2023-05-10T02:34:56.018Z,1.70
2023-05-10T02:37:23.803Z,2.10
2023-05-10T02:39:53.451Z,1.90
2023-05-10T02:42:26.299Z,2.12
2023-05-10T02:44:57.630Z,1.90
2023-05-10T02:47:24.921Z,1.97
2023-05-10T02:49:51.788Z,1.98
2023-05-10T02:52:25.925Z,1.92
2023-05-10T02:54:56.572Z,2.00
2023-05-10T02:57:35.431Z,1.77
2023-05-10T03:00:04.392Z,1.87
2023-05-10T03:02:32.063Z,1.80
2023-05-10T03:04:59.297Z,2.08
2023-05-10T03:07:26.568Z,2.00
2023-05-10T03:09:53.836Z,1.83
2023-05-10T03:12:45.767Z,2.33
2023-05-10T03:15:33.805Z,2.30
2023-05-10T03:18:12.128Z,2.30
2023-05-10T03:21:02.829Z,1.90
2023-05-10T03:23:51.773Z,2.58
2023-05-10T03:26:25.136Z,2.30
2023-05-10T03:28:53.459Z,2.40
2023-05-10T03:31:20.577Z,2.37
2023-05-10T03:33:52.279Z,2.20
2023-05-10T03:36:19.926Z,1.95
2023-05-10T03:38:46.898Z,2.37
2023-05-10T03:41:14.001Z,2.15
2023-05-10T03:43:40.908Z,2.50
2023-05-10T03:46:07.733Z,2.40
2023-05-10T03:48:34.691Z,2.35
2023-05-10T03:51:01.592Z,2.47
2023-05-10T03:53:28.671Z,2.42
2023-05-10T03:55:55.664Z,2.25
2023-05-10T03:58:22.962Z,2.37
2023-05-10T04:00:49.849Z,2.40
2023-05-10T04:03:16.963Z,2.20
2023-05-10T04:05:43.968Z,2.58
2023-05-10T04:08:10.956Z,2.30
2023-05-10T04:10:38.000Z,2.20
2023-05-10T04:13:04.871Z,2.60
2023-05-10T04:15:31.753Z,2.97
2023-05-10T04:17:58.906Z,2.30
2023-05-10T04:20:26.253Z,2.80
2023-05-10T04:22:53.180Z,2.60
2023-05-10T04:25:20.139Z,2.72
2023-05-10T04:27:47.053Z,2.60
2023-05-10T04:30:14.155Z,2.60
2023-05-10T04:32:41.321Z,2.50
2023-05-10T04:35:08.670Z,2.62
2023-05-10T04:37:35.741Z,3.10
2023-05-10T04:40:04.103Z,2.70
2023-05-10T04:42:30.985Z,2.92
2023-05-10T04:44:58.000Z,2.62
2023-05-10T04:47:24.968Z,2.80
2023-05-10T04:49:52.029Z,2.40
2023-05-10T04:52:19.076Z,2.50
2023-05-10T04:54:45.944Z,2.60
2023-05-10T04:57:12.801Z,2.28
2023-05-10T04:59:39.706Z,2.70
2023-05-10T05:02:06.923Z,2.62
2023-05-10T05:04:33.777Z,2.63
2023-05-10T05:07:00.667Z,2.97
2023-05-10T05:09:27.565Z,2.30
2023-05-10T05:11:54.589Z,2.70
2023-05-10T05:14:26.177Z,2.65
2023-05-10T05:16:53.801Z,2.60
2023-05-10T05:19:20.680Z,2.83
2023-05-10T05:21:47.775Z,2.55
2023-05-10T05:24:14.626Z,2.60
2023-05-10T05:26:41.490Z,2.80
2023-05-10T05:29:08.494Z,2.57
2023-05-10T05:31:35.386Z,2.67
2023-05-10T05:34:02.541Z,2.72
2023-05-10T05:36:29.550Z,2.70
2023-05-10T05:38:56.530Z,3.12
2023-05-10T05:41:23.541Z,2.40
2023-05-10T05:43:50.437Z,2.53
2023-05-10T05:46:17.364Z,2.40
2023-05-10T05:48:44.337Z,2.62
2023-05-10T05:51:14.006Z,2.53
2023-05-10T05:53:41.024Z,2.20
2023-05-10T05:56:09.134Z,2.65
2023-05-10T05:58:36.608Z,2.50
2023-05-10T06:01:03.549Z,2.80
2023-05-10T06:03:30.968Z,2.55
2023-05-10T06:05:57.935Z,3.03
2023-05-10T06:08:24.859Z,2.80
2023-05-10T06:10:51.930Z,2.33
2023-05-10T06:13:18.926Z,2.50
2023-05-10T06:15:46.469Z,2.53
2023-05-10T06:18:13.340Z,2.70
2023-05-10T06:20:42.761Z,2.42
2023-05-10T06:23:09.702Z,2.25
2023-05-10T06:25:36.610Z,2.85
2023-05-10T06:28:03.544Z,2.30
2023-05-10T06:30:30.575Z,2.60
2023-05-10T06:32:57.643Z,2.58
2023-05-10T06:35:24.714Z,2.42
2023-05-10T06:37:52.452Z,2.22
2023-05-10T06:40:19.759Z,2.50
2023-05-10T06:42:47.435Z,2.67
2023-05-10T06:45:16.054Z,2.47
2023-05-10T06:47:43.223Z,2.70
2023-05-10T06:50:12.532Z,2.08
2023-05-10T06:52:40.008Z,2.50
2023-05-10T06:55:27.458Z,2.63
2023-05-10T06:57:55.017Z,2.45
2023-05-10T07:00:22.099Z,2.30
2023-05-10T07:02:49.065Z,2.30
2023-05-10T07:05:16.480Z,2.45
2023-05-10T07:07:43.464Z,2.43
2023-05-10T07:10:10.905Z,2.37
2023-05-10T07:12:37.842Z,2.30
2023-05-10T07:15:05.705Z,2.60
2023-05-10T07:17:34.416Z,2.22
2023-05-10T07:20:01.564Z,2.23
2023-05-10T07:22:28.463Z,2.65
2023-05-10T07:24:55.591Z,1.87
2023-05-10T07:27:22.453Z,2.08
2023-05-10T07:29:49.593Z,2.10
2023-05-10T07:32:16.732Z,2.20
2023-05-10T07:34:43.683Z,2.37
2023-05-10T07:37:10.621Z,2.00
2023-05-10T07:39:37.533Z,1.98
2023-05-10T07:42:04.672Z,2.03
2023-05-10T07:44:31.674Z,2.13
2023-05-10T07:46:58.550Z,2.25
2023-05-10T07:49:25.412Z,2.08
2023-05-10T07:51:52.429Z,2.12
2023-05-10T07:54:19.429Z,1.90
2023-05-10T07:56:48.371Z,2.60
2023-05-10T07:59:18.717Z,2.20
2023-05-10T08:01:46.146Z,2.00
2023-05-10T08:04:13.209Z,1.55
2023-05-10T08:06:41.392Z,1.92
2023-05-10T08:09:08.568Z,2.03
2023-05-10T08:11:35.486Z,2.10
2023-05-10T08:14:02.390Z,2.03
2023-05-10T08:16:29.979Z,2.30
2023-05-10T08:18:57.122Z,2.03
2023-05-10T08:21:23.961Z,1.83
2023-05-10T08:23:50.982Z,2.17
2023-05-10T08:26:17.947Z,1.85
2023-05-10T08:28:44.854Z,2.30
2023-05-10T08:31:11.839Z,2.20
2023-05-10T08:33:38.696Z,2.27
2023-05-10T08:36:05.601Z,2.33
2023-05-10T08:38:32.493Z,2.10
2023-05-10T08:41:00.447Z,2.20
2023-05-10T08:43:31.474Z,2.37
2023-05-10T08:46:02.894Z,2.30
2023-05-10T08:48:30.927Z,2.22
2023-05-10T08:50:59.960Z,2.00
2023-05-10T08:53:29.806Z,2.17
2023-05-10T08:55:56.919Z,1.98
2023-05-10T08:58:23.886Z,2.03
2023-05-10T09:00:54.231Z,2.00
2023-05-10T09:03:21.260Z,1.80
2023-05-10T09:05:50.062Z,1.83
2023-05-10T09:08:20.898Z,1.98
2023-05-10T09:10:49.620Z,2.00
2023-05-10T09:13:16.778Z,1.95
2023-05-10T09:15:45.714Z,2.33
2023-05-10T09:18:13.489Z,1.80
2023-05-10T09:20:40.652Z,1.80
2023-05-10T09:23:07.939Z,1.93
2023-05-10T09:25:34.935Z,1.73
2023-05-10T09:28:02.002Z,1.90
2023-05-10T09:30:32.428Z,1.83
2023-05-10T09:33:00.367Z,1.92
2023-05-10T09:35:30.374Z,1.57
2023-05-10T09:38:00.291Z,1.37
2023-05-10T09:40:29.315Z,1.60
2023-05-10T09:43:06.991Z,1.85
2023-05-10T09:45:37.769Z,1.70
2023-05-10T09:48:06.134Z,1.67
2023-05-10T09:50:33.232Z,1.52
2023-05-10T09:53:03.755Z,1.30
2023-05-10T09:55:41.224Z,1.60
2023-05-10T09:58:11.856Z,1.62
2023-05-10T10:00:41.458Z,1.67
2023-05-10T10:03:21.170Z,1.65
2023-05-10T10:05:49.868Z,1.75
2023-05-10T10:08:17.649Z,1.70
2023-05-10T10:10:47.625Z,1.40
2023-05-10T10:13:16.539Z,1.50
2023-05-10T10:15:45.228Z,1.80
2023-05-10T10:18:16.554Z,1.65
2023-05-10T10:20:43.978Z,1.77
2023-05-10T10:23:10.990Z,1.60
2023-05-10T10:25:40.151Z,1.70
2023-05-10T10:28:27.551Z,1.80
2023-05-10T10:30:56.927Z,1.50
2023-05-10T10:34:02.030Z,1.60
2023-05-10T10:36:29.089Z,1.40
2023-05-10T10:39:04.231Z,1.40
2023-05-10T10:41:35.295Z,1.70
2023-05-10T10:44:27.833Z,1.30
2023-05-10T10:47:24.147Z,1.40
2023-05-10T10:49:53.568Z,1.52
2023-05-10T10:52:31.076Z,1.50
2023-05-10T10:55:04.342Z,1.50
2023-05-10T10:57:46.802Z,1.23
2023-05-10T11:00:27.477Z,1.48
2023-05-10T11:02:59.069Z,1.40
2023-05-10T11:05:45.666Z,1.40
2023-05-10T11:08:28.592Z,1.48
2023-05-10T11:11:05.072Z,1.30
2023-05-10T11:13:36.057Z,1.10
2023-05-10T11:16:14.736Z,1.48
2023-05-10T11:18:42.130Z,1.53
2023-05-10T11:21:11.890Z,1.20
2023-05-10T11:23:44.764Z,1.85
2023-05-10T11:26:13.076Z,1.27
2023-05-10T11:28:49.942Z,1.37
2023-05-10T11:31:19.286Z,1.47
2023-05-10T11:33:51.085Z,1.10
2023-05-10T11:36:20.401Z,1.30
2023-05-10T11:38:48.344Z,1.40
2023-05-10T11:41:17.886Z,1.20
2023-05-10T11:43:47.865Z,1.40
2023-05-10T11:46:15.076Z,1.23
2023-05-10T11:48:43.682Z,1.20
2023-05-10T11:51:11.783Z,1.40
2023-05-10T11:53:39.320Z,1.17
2023-05-10T11:56:11.042Z,1.30
2023-05-10T11:58:39.988Z,1.12
2023-05-10T12:01:09.022Z,1.20
2023-05-10T12:03:37.059Z,1.10
2023-05-10T12:06:04.592Z,1.30
2023-05-10T12:08:32.034Z,2.03
2023-05-10T12:11:09.017Z,1.70
2023-05-10T12:13:43.778Z,1.42
2023-05-10T12:16:18.520Z,1.42
2023-05-10T12:18:46.267Z,1.02
2023-05-10T12:21:13.755Z,1.20
2023-05-10T12:23:40.857Z,1.05
2023-05-10T12:26:10.529Z,1.60
2023-05-10T12:28:39.024Z,1.30
2023-05-10T12:31:06.896Z,1.17
2023-05-10T12:33:40.039Z,1.70
2023-05-10T12:36:07.802Z,1.33
2023-05-10T12:38:40.253Z,1.10
2023-05-10T12:41:09.545Z,1.10
2023-05-10T12:43:37.321Z,1.20
2023-05-10T12:46:17.476Z,1.10
2023-05-10T12:48:45.580Z,1.05
2023-05-10T12:51:14.166Z,1.27
2023-05-10T12:53:43.689Z,1.20
2023-05-10T12:56:12.061Z,1.20
2023-05-10T12:58:39.636Z,1.43
2023-05-10T13:01:06.619Z,1.10
2023-05-10T13:03:33.718Z,1.08
2023-05-10T13:06:00.763Z,1.12
2023-05-10T13:08:27.575Z,1.00
2023-05-10T13:10:54.526Z,1.20
2023-05-10T13:13:21.420Z,1.33
2023-05-10T13:15:48.157Z,1.30
2023-05-10T13:18:15.066Z,1.50
2023-05-10T13:20:42.053Z,1.20
2023-05-10T13:23:08.941Z,1.10
2023-05-10T13:25:35.807Z,0.82
2023-05-10T13:28:03.247Z,1.60
2023-05-10T13:30:30.209Z,1.20
2023-05-10T13:32:57.276Z,1.00
2023-05-10T13:35:24.425Z,1.10
2023-05-10T13:37:51.252Z,0.90
2023-05-10T13:40:18.368Z,1.20
2023-05-10T13:42:45.562Z,1.42
2023-05-10T13:45:14.211Z,1.62
2023-05-10T13:47:41.168Z,1.13
2023-05-10T13:50:08.387Z,1.00
2023-05-10T13:52:35.415Z,1.10
2023-05-10T13:55:02.257Z,1.00
2023-05-10T13:57:29.913Z,1.60
2023-05-10T13:59:58.350Z,1.33
2023-05-10T14:02:25.776Z,1.12
2023-05-10T14:04:52.930Z,1.23
2023-05-10T14:07:20.373Z,1.48
2023-05-10T14:09:47.247Z,1.02
2023-05-10T14:12:15.535Z,1.47
2023-05-10T14:14:42.361Z,1.10
2023-05-10T14:17:11.473Z,0.73
2023-05-10T14:19:40.070Z,1.10
2023-05-10T14:22:07.328Z,1.12
2023-05-10T14:24:34.214Z,0.80
2023-05-10T14:27:01.329Z,0.90
2023-05-10T14:29:28.360Z,1.05
2023-05-10T14:31:55.182Z,0.98
2023-05-10T14:34:22.083Z,0.80
2023-05-10T14:36:48.935Z,0.80
2023-05-10T14:39:15.984Z,1.00
2023-05-10T14:41:44.032Z,0.90
2023-05-10T14:44:11.125Z,0.80
2023-05-10T14:46:38.383Z,1.10
2023-05-10T14:49:05.497Z,0.90
2023-05-10T14:51:32.808Z,0.95
2023-05-10T14:53:59.970Z,0.80
2023-05-10T14:56:29.574Z,0.90
2023-05-10T14:58:56.647Z,1.00
2023-05-10T15:01:24.159Z,0.83
2023-05-10T15:03:51.802Z,1.00
2023-05-10T15:06:26.003Z,0.90
2023-05-10T15:08:52.896Z,0.80
2023-05-10T15:11:19.781Z,1.10
2023-05-10T15:13:46.537Z,0.90
2023-05-10T15:16:13.454Z,1.52
2023-05-10T15:18:40.451Z,1.20
2023-05-10T15:21:07.430Z,0.95
2023-05-10T15:23:34.275Z,1.10
2023-05-10T15:26:01.793Z,1.60
2023-05-10T15:28:28.588Z,1.65
2023-05-10T15:30:57.193Z,1.08
2023-05-10T15:33:24.172Z,1.05
2023-05-10T15:35:51.136Z,0.93
2023-05-10T15:38:18.246Z,1.00
2023-05-10T15:40:45.234Z,0.80
2023-05-10T15:43:12.111Z,0.90
2023-05-10T15:45:38.924Z,1.10
2023-05-10T15:48:05.957Z,0.82
2023-05-10T15:50:32.898Z,1.10
2023-05-10T15:52:59.818Z,0.88
2023-05-10T15:55:39.481Z,1.10
2023-05-10T15:58:06.291Z,1.55
2023-05-10T16:00:36.257Z,0.88
2023-05-10T16:03:03.290Z,1.00
2023-05-10T16:05:33.580Z,0.95
2023-05-10T16:08:01.887Z,1.02
2023-05-10T16:10:31.737Z,0.98
2023-05-10T16:12:58.782Z,1.05
2023-05-10T16:15:25.710Z,0.87
2023-05-10T16:17:52.815Z,1.12
2023-05-10T16:20:20.049Z,1.10
2023-05-10T16:22:46.943Z,1.20
2023-05-10T16:25:13.912Z,0.93
2023-05-10T16:27:41.042Z,1.23
2023-05-10T16:30:08.708Z,1.12
2023-05-10T16:32:35.601Z,1.08
2023-05-10T16:35:02.464Z,1.20
2023-05-10T16:37:29.364Z,1.17
2023-05-10T16:39:56.416Z,1.10
2023-05-10T16:42:24.282Z,1.08
2023-05-10T16:44:51.127Z,1.10
2023-05-10T16:47:18.411Z,1.55
2023-05-10T16:49:45.746Z,1.50
2023-05-10T16:52:12.653Z,1.10
2023-05-10T16:54:39.557Z,1.10
2023-05-10T16:57:06.413Z,1.67
2023-05-10T16:59:33.386Z,0.90
2023-05-10T17:02:00.348Z,0.90
2023-05-10T17:04:27.258Z,0.90
2023-05-10T17:06:54.200Z,0.80
2023-05-10T17:09:21.354Z,1.10
2023-05-10T17:11:48.360Z,1.00
2023-05-10T17:14:15.168Z,1.08
2023-05-10T17:16:42.155Z,1.00
2023-05-10T17:19:09.483Z,0.90
2023-05-10T17:21:36.559Z,0.80
2023-05-10T17:24:03.437Z,1.02
2023-05-10T17:26:30.573Z,1.00
2023-05-10T17:28:57.897Z,0.90
2023-05-10T17:31:24.921Z,0.93
2023-05-10T17:33:51.869Z,1.30
2023-05-10T17:36:18.965Z,1.00
2023-05-10T17:38:45.861Z,0.82
2023-05-10T17:41:12.735Z,0.77
2023-05-10T17:43:39.581Z,0.80
2023-05-10T17:46:06.497Z,0.93
2023-05-10T17:48:33.821Z,1.10
2023-05-10T17:51:00.696Z,0.70
2023-05-10T17:53:27.607Z,0.93
2023-05-10T17:55:58.071Z,1.23
2023-05-10T17:58:25.449Z,1.00
2023-05-10T18:00:53.007Z,1.12
2023-05-10T18:03:19.964Z,1.10
2023-05-10T18:05:47.986Z,1.03
2023-05-10T18:08:15.728Z,1.17
2023-05-10T18:10:42.802Z,1.02
2023-05-10T18:13:09.796Z,0.90
2023-05-10T18:15:37.286Z,1.10
2023-05-10T18:18:05.254Z,0.90
2023-05-10T18:20:32.848Z,1.30
2023-05-10T18:23:00.136Z,2.70
2023-05-10T18:25:27.403Z,6.43
2023-05-10T18:27:54.674Z,6.95
2023-05-10T18:30:22.754Z,7.67
2023-05-10T18:32:50.756Z,7.30
2023-05-10T18:35:19.574Z,6.97
2023-05-10T18:37:48.696Z,5.07
2023-05-10T18:40:17.724Z,3.70
2023-05-10T18:42:50.187Z,2.47
2023-05-10T18:45:18.928Z,1.80
2023-05-10T18:47:47.396Z,1.33
2023-05-10T18:50:17.600Z,1.35
2023-05-10T18:52:46.890Z,1.20
2023-05-10T18:55:15.590Z,1.17
2023-05-10T18:57:45.270Z,1.48
2023-05-10T19:00:14.482Z,1.73
2023-05-10T19:02:42.667Z,1.20
2023-05-10T19:05:10.920Z,1.40
2023-05-10T19:07:44.950Z,1.33
2023-05-10T19:10:13.955Z,1.50
2023-05-10T19:12:41.969Z,1.60
2023-05-10T19:15:10.747Z,1.50
2023-05-10T19:17:40.732Z,1.30
2023-05-10T19:20:10.760Z,1.80
2023-05-10T19:22:54.158Z,1.33
2023-05-10T19:25:29.806Z,1.30
2023-05-10T19:27:58.681Z,1.30
2023-05-10T19:30:27.138Z,1.45
2023-05-10T19:32:56.065Z,1.30
2023-05-10T19:35:24.217Z,1.12
2023-05-10T19:37:52.688Z,1.50
2023-05-10T19:40:20.631Z,1.65
2023-05-10T19:42:49.009Z,1.67
2023-05-10T19:45:17.370Z,1.20
2023-05-10T19:47:45.614Z,1.30
2023-05-10T19:50:14.008Z,1.20
2023-05-10T19:52:42.908Z,1.40
2023-05-10T19:55:11.872Z,1.23
2023-05-10T19:57:39.822Z,1.30
2023-05-10T20:00:08.450Z,1.33
2023-05-10T20:02:36.233Z,1.40
2023-05-10T20:05:04.244Z,1.33
2023-05-10T20:07:32.258Z,1.40
2023-05-10T20:09:59.939Z,1.50
2023-05-10T20:12:27.381Z,1.20
2023-05-10T20:14:54.576Z,1.05
2023-05-10T20:17:22.257Z,1.20
2023-05-10T20:19:49.618Z,1.20
2023-05-10T20:22:17.214Z,1.13
2023-05-10T20:24:44.500Z,0.88
2023-05-10T20:27:12.083Z,1.60
2023-05-10T20:29:40.132Z,1.25
2023-05-10T20:32:07.908Z,1.10
2023-05-10T20:34:35.595Z,1.20
2023-05-10T20:37:04.262Z,1.30
2023-05-10T20:39:31.992Z,1.30
2023-05-10T20:42:00.301Z,1.10
2023-05-10T20:44:28.004Z,1.23
2023-05-10T20:46:57.464Z,1.10
2023-05-10T20:49:25.115Z,1.20
2023-05-10T20:51:52.026Z,1.27
2023-05-10T20:54:18.900Z,1.20
2023-05-10T20:56:45.838Z,1.33
2023-05-10T20:59:12.789Z,1.10
2023-05-10T21:01:39.740Z,1.10
2023-05-10T21:04:06.786Z,1.25
2023-05-10T21:06:33.627Z,1.30
2023-05-10T21:09:00.418Z,1.27
2023-05-10T21:11:27.266Z,1.20
2023-05-10T21:13:54.155Z,1.20
2023-05-10T21:16:21.249Z,1.75
2023-05-10T21:18:48.152Z,1.17
2023-05-10T21:21:15.027Z,1.00
2023-05-10T21:23:41.847Z,1.50
2023-05-10T21:26:08.658Z,1.23
2023-05-10T21:28:35.638Z,1.37
2023-05-10T21:31:02.519Z,1.50
2023-05-10T21:33:29.444Z,1.33
2023-05-10T21:35:56.963Z,1.77
2023-05-10T21:38:23.800Z,1.10
2023-05-10T21:40:50.574Z,1.05
2023-05-10T21:43:17.374Z,1.20
2023-05-10T21:45:44.230Z,1.30
2023-05-10T21:48:11.118Z,1.30
2023-05-10T21:50:38.040Z,1.60
2023-05-10T21:53:05.106Z,1.35
2023-05-10T21:55:32.013Z,1.58
2023-05-10T21:57:58.835Z,1.60
2023-05-10T22:00:25.671Z,1.50
2023-05-10T22:02:52.666Z,1.33
2023-05-10T22:05:19.584Z,1.50
2023-05-10T22:07:46.372Z,1.40
2023-05-10T22:10:13.274Z,1.40
2023-05-10T22:12:40.055Z,1.40
2023-05-10T22:15:10.166Z,1.17
2023-05-10T22:17:39.622Z,1.33
2023-05-10T22:20:08.497Z,1.25
2023-05-10T22:22:36.786Z,1.50
2023-05-10T22:25:05.799Z,1.40
2023-05-10T22:27:32.641Z,1.35
2023-05-10T22:29:59.552Z,1.30
2023-05-10T22:32:26.373Z,1.30
2023-05-10T22:34:53.254Z,1.45
2023-05-10T22:37:20.129Z,1.50
2023-05-10T22:39:47.114Z,1.30
2023-05-10T22:42:14.074Z,1.37
2023-05-10T22:44:40.989Z,1.20
2023-05-10T22:47:09.068Z,1.60
2023-05-10T22:49:35.953Z,1.30
2023-05-10T22:52:02.805Z,1.10
2023-05-10T22:54:29.670Z,1.27
2023-05-10T22:56:56.738Z,1.12
2023-05-10T22:59:23.865Z,1.20
2023-05-10T23:01:50.821Z,1.50
2023-05-10T23:04:18.070Z,1.33
2023-05-10T23:06:45.956Z,1.12
2023-05-10T23:09:12.815Z,1.20
2023-05-10T23:11:39.655Z,1.52
2023-05-10T23:14:06.480Z,1.50
2023-05-10T23:16:33.434Z,1.30
2023-05-10T23:19:00.305Z,1.40
2023-05-10T23:21:28.294Z,1.20
2023-05-10T23:23:56.280Z,1.35
2023-05-10T23:26:23.179Z,1.43
2023-05-10T23:28:50.009Z,1.60
2023-05-10T23:31:16.854Z,1.40
2023-05-10T23:33:43.697Z,1.30
2023-05-10T23:36:10.597Z,1.15
2023-05-10T23:38:39.273Z,1.63
2023-05-10T23:41:06.250Z,1.37
2023-05-10T23:43:33.155Z,1.20
2023-05-10T23:46:00.123Z,1.67
2023-05-10T23:48:27.000Z,1.50
2023-05-10T23:50:53.866Z,1.10
2023-05-10T23:53:20.748Z,1.33
2023-05-10T23:55:47.616Z,1.00
2023-05-10T23:58:14.594Z,1.00
